Main page
METAR-TAF:

METAR-TAF

Airports :

Mexicali International Airport

Mexicali, Mexico

latitude: 32-37-50N, longitude: 115-14-30W, elevation: 22 m

Current weather observation

The report was made 45 minutes ago, at 23:47 UTC
Wind 7 kt from the South/Southeast
Temperature 33°C
Humidity 15%
Pressure 1009 hPa
Visibility: 16.1 km
Clear sky

METAR: MMML 232347Z 15007KT 10SM SKC 33/03 A2980 RMK SLP095 57007 930

Time: 19:32 (00:32 UTC)

Forecast

The report was made 7 hours and 20 minutes ago, at 17:12 UTC
Forecast valid from 23 at 18 UTC to 24 at 18 UTC
Wind 5 kt from the South
Visibility: 10 km
Clear sky
From 24 at 0400 UTC
Wind 5 kt from the East/Southeast
Visibility: 10 km
Clear sky

TAF: MMML 231712Z 2318/2418 17005KT P6SM SKC FM240400 11005KT P6SM SKC

Weather observations and forecasts of more than 4000 airports (METAR and TAF reports).

The available stations are represented by yellow and red dots on the map.

Hover mouse over dot to see the name of the station.

Then click to see weather observations and forecasts.

To change the map : click on the green buttons with a black cross to zoom in, on the green button with a dash to zoom out, or on the green arrows for adjacent maps.


METAR-TAF: